sensor_id;sensor_type;location;lat;lon;timestamp;temperature;humidity
65826;DHT22;52586;-43.152;172.732;2023-05-07T00:00:32;19.70;57.70
65826;DHT22;52586;-43.152;172.732;2023-05-07T00:03:05;19.70;57.70
65826;DHT22;52586;-43.152;172.732;2023-05-07T00:05:35;19.80;58.30
65826;DHT22;52586;-43.152;172.732;2023-05-07T00:08:06;19.70;57.60
65826;DHT22;52586;-43.152;172.732;2023-05-07T00:10:37;19.80;57.70
65826;DHT22;52586;-43.152;172.732;2023-05-07T00:13:08;19.80;57.70
65826;DHT22;52586;-43.152;172.732;2023-05-07T00:15:38;19.80;58.40
65826;DHT22;52586;-43.152;172.732;2023-05-07T00:18:11;19.80;58.40
65826;DHT22;52586;-43.152;172.732;2023-05-07T00:20:42;19.80;58.30
65826;DHT22;52586;-43.152;172.732;2023-05-07T00:23:12;19.80;58.20
65826;DHT22;52586;-43.152;172.732;2023-05-07T00:25:43;19.80;58.20
65826;DHT22;52586;-43.152;172.732;2023-05-07T00:28:14;19.90;58.40
65826;DHT22;52586;-43.152;172.732;2023-05-07T00:30:44;19.90;58.60
65826;DHT22;52586;-43.152;172.732;2023-05-07T00:33:17;19.90;58.80
65826;DHT22;52586;-43.152;172.732;2023-05-07T00:35:48;19.90;58.80
65826;DHT22;52586;-43.152;172.732;2023-05-07T00:38:19;19.90;59.00
65826;DHT22;52586;-43.152;172.732;2023-05-07T00:40:49;20.00;59.20
65826;DHT22;52586;-43.152;172.732;2023-05-07T00:43:20;20.00;59.20
65826;DHT22;52586;-43.152;172.732;2023-05-07T00:45:51;20.00;59.20
65826;DHT22;52586;-43.152;172.732;2023-05-07T00:48:23;20.00;59.10
65826;DHT22;52586;-43.152;172.732;2023-05-07T00:50:55;20.00;59.00
65826;DHT22;52586;-43.152;172.732;2023-05-07T00:53:26;20.00;58.90
65826;DHT22;52586;-43.152;172.732;2023-05-07T00:55:58;20.10;58.90
65826;DHT22;52586;-43.152;172.732;2023-05-07T00:58:29;20.10;58.90
65826;DHT22;52586;-43.152;172.732;2023-05-07T01:01:00;20.10;58.90
65826;DHT22;52586;-43.152;172.732;2023-05-07T01:03:32;20.10;58.80
65826;DHT22;52586;-43.152;172.732;2023-05-07T01:06:03;20.10;58.80
65826;DHT22;52586;-43.152;172.732;2023-05-07T01:08:35;20.10;58.80
65826;DHT22;52586;-43.152;172.732;2023-05-07T01:11:08;20.10;59.00
65826;DHT22;52586;-43.152;172.732;2023-05-07T01:13:39;20.10;59.00
65826;DHT22;52586;-43.152;172.732;2023-05-07T01:16:11;20.10;59.00
65826;DHT22;52586;-43.152;172.732;2023-05-07T01:18:43;20.20;59.20
65826;DHT22;52586;-43.152;172.732;2023-05-07T01:21:16;20.20;59.10
65826;DHT22;52586;-43.152;172.732;2023-05-07T01:23:50;20.20;59.10
65826;DHT22;52586;-43.152;172.732;2023-05-07T01:26:22;20.20;59.10
65826;DHT22;52586;-43.152;172.732;2023-05-07T01:28:53;20.20;59.00
65826;DHT22;52586;-43.152;172.732;2023-05-07T01:31:24;20.20;59.00
65826;DHT22;52586;-43.152;172.732;2023-05-07T01:33:55;20.20;58.90
65826;DHT22;52586;-43.152;172.732;2023-05-07T01:36:27;20.20;58.90
65826;DHT22;52586;-43.152;172.732;2023-05-07T01:39:01;20.30;58.90
65826;DHT22;52586;-43.152;172.732;2023-05-07T01:41:32;20.30;58.90
65826;DHT22;52586;-43.152;172.732;2023-05-07T01:44:04;20.20;58.90
65826;DHT22;52586;-43.152;172.732;2023-05-07T01:46:36;20.30;58.90
65826;DHT22;52586;-43.152;172.732;2023-05-07T01:49:06;20.30;58.90
65826;DHT22;52586;-43.152;172.732;2023-05-07T01:51:37;20.30;58.90
65826;DHT22;52586;-43.152;172.732;2023-05-07T01:54:11;20.30;58.80
65826;DHT22;52586;-43.152;172.732;2023-05-07T01:56:42;20.30;58.90
65826;DHT22;52586;-43.152;172.732;2023-05-07T01:59:12;20.30;58.90
65826;DHT22;52586;-43.152;172.732;2023-05-07T02:01:43;20.30;58.80
65826;DHT22;52586;-43.152;172.732;2023-05-07T02:04:14;20.30;58.90
65826;DHT22;52586;-43.152;172.732;2023-05-07T02:06:44;20.30;58.80
65826;DHT22;52586;-43.152;172.732;2023-05-07T02:09:17;20.30;58.80
65826;DHT22;52586;-43.152;172.732;2023-05-07T02:11:48;20.30;58.80
65826;DHT22;52586;-43.152;172.732;2023-05-07T02:14:18;20.30;58.80
65826;DHT22;52586;-43.152;172.732;2023-05-07T02:16:49;20.40;58.90
65826;DHT22;52586;-43.152;172.732;2023-05-07T02:19:19;20.30;58.80
65826;DHT22;52586;-43.152;172.732;2023-05-07T02:21:50;20.40;58.80
65826;DHT22;52586;-43.152;172.732;2023-05-07T03:24:19;20.50;58.60
65826;DHT22;52586;-43.152;172.732;2023-05-07T03:26:50;20.50;58.60
65826;DHT22;52586;-43.152;172.732;2023-05-07T03:29:20;20.50;58.60
65826;DHT22;52586;-43.152;172.732;2023-05-07T03:31:51;20.50;58.60
65826;DHT22;52586;-43.152;172.732;2023-05-07T03:34:22;20.60;58.70
65826;DHT22;52586;-43.152;172.732;2023-05-07T03:36:52;20.60;58.60
65826;DHT22;52586;-43.152;172.732;2023-05-07T03:39:25;20.60;58.60
65826;DHT22;52586;-43.152;172.732;2023-05-07T03:41:56;20.60;58.60
65826;DHT22;52586;-43.152;172.732;2023-05-07T03:44:26;20.60;58.60
65826;DHT22;52586;-43.152;172.732;2023-05-07T03:46:57;20.60;58.60
65826;DHT22;52586;-43.152;172.732;2023-05-07T03:49:27;20.60;59.20
65826;DHT22;52586;-43.152;172.732;2023-05-07T03:51:58;20.60;58.50
65826;DHT22;52586;-43.152;172.732;2023-05-07T03:54:31;20.60;58.50
65826;DHT22;52586;-43.152;172.732;2023-05-07T03:57:02;20.60;58.50
65826;DHT22;52586;-43.152;172.732;2023-05-07T03:59:32;20.60;58.60
65826;DHT22;52586;-43.152;172.732;2023-05-07T04:02:03;20.60;59.90
65826;DHT22;52586;-43.152;172.732;2023-05-07T04:04:34;20.60;59.70
65826;DHT22;52586;-43.152;172.732;2023-05-07T04:07:04;20.60;59.70
65826;DHT22;52586;-43.152;172.732;2023-05-07T04:09:37;20.60;59.70
65826;DHT22;52586;-43.152;172.732;2023-05-07T04:12:07;20.70;59.70
65826;DHT22;52586;-43.152;172.732;2023-05-07T04:14:38;20.70;59.70
65826;DHT22;52586;-43.152;172.732;2023-05-07T04:17:09;20.70;59.70
65826;DHT22;52586;-43.152;172.732;2023-05-07T04:19:39;20.70;59.80
65826;DHT22;52586;-43.152;172.732;2023-05-07T04:24:44;20.70;59.90
65826;DHT22;52586;-43.152;172.732;2023-05-07T04:27:15;20.70;59.90
65826;DHT22;52586;-43.152;172.732;2023-05-07T04:29:45;20.70;59.90
65826;DHT22;52586;-43.152;172.732;2023-05-07T04:32:16;20.70;59.90
65826;DHT22;52586;-43.152;172.732;2023-05-07T04:34:47;20.70;59.90
65826;DHT22;52586;-43.152;172.732;2023-05-07T04:37:17;20.70;59.90
65826;DHT22;52586;-43.152;172.732;2023-05-07T04:39:50;20.70;59.90
65826;DHT22;52586;-43.152;172.732;2023-05-07T04:42:21;20.70;59.90
65826;DHT22;52586;-43.152;172.732;2023-05-07T04:44:53;20.70;59.90
65826;DHT22;52586;-43.152;172.732;2023-05-07T04:47:24;20.70;59.80
65826;DHT22;52586;-43.152;172.732;2023-05-07T04:49:55;20.70;59.80
65826;DHT22;52586;-43.152;172.732;2023-05-07T04:52:26;20.70;59.80
65826;DHT22;52586;-43.152;172.732;2023-05-07T04:55:00;20.70;59.70
65826;DHT22;52586;-43.152;172.732;2023-05-07T04:57:33;20.70;59.70
65826;DHT22;52586;-43.152;172.732;2023-05-07T05:00:04;20.70;59.70
65826;DHT22;52586;-43.152;172.732;2023-05-07T05:02:36;20.70;59.80
65826;DHT22;52586;-43.152;172.732;2023-05-07T05:05:07;20.60;59.80
65826;DHT22;52586;-43.152;172.732;2023-05-07T05:07:38;20.60;59.80
65826;DHT22;52586;-43.152;172.732;2023-05-07T05:10:10;20.60;60.00
65826;DHT22;52586;-43.152;172.732;2023-05-07T05:12:41;20.60;60.10
65826;DHT22;52586;-43.152;172.732;2023-05-07T05:15:12;20.50;60.00
65826;DHT22;52586;-43.152;172.732;2023-05-07T05:17:43;20.50;60.00
65826;DHT22;52586;-43.152;172.732;2023-05-07T05:20:14;20.50;60.10
65826;DHT22;52586;-43.152;172.732;2023-05-07T05:22:44;20.50;60.10
65826;DHT22;52586;-43.152;172.732;2023-05-07T05:25:17;20.50;60.40
65826;DHT22;52586;-43.152;172.732;2023-05-07T05:27:47;20.50;60.50
65826;DHT22;52586;-43.152;172.732;2023-05-07T05:30:18;20.50;60.50
65826;DHT22;52586;-43.152;172.732;2023-05-07T05:32:49;20.40;60.40
65826;DHT22;52586;-43.152;172.732;2023-05-07T05:35:19;20.40;60.40
65826;DHT22;52586;-43.152;172.732;2023-05-07T05:37:50;20.50;60.50
65826;DHT22;52586;-43.152;172.732;2023-05-07T05:40:22;20.40;60.50
65826;DHT22;52586;-43.152;172.732;2023-05-07T05:42:53;20.40;60.40
65826;DHT22;52586;-43.152;172.732;2023-05-07T05:45:24;20.40;60.30
65826;DHT22;52586;-43.152;172.732;2023-05-07T05:47:57;20.40;60.40
65826;DHT22;52586;-43.152;172.732;2023-05-07T05:50:27;20.40;60.30
65826;DHT22;52586;-43.152;172.732;2023-05-07T05:52:58;20.40;60.40
65826;DHT22;52586;-43.152;172.732;2023-05-07T05:55:31;20.30;60.50
65826;DHT22;52586;-43.152;172.732;2023-05-07T05:58:02;20.30;60.50
65826;DHT22;52586;-43.152;172.732;2023-05-07T06:00:33;20.30;60.60
65826;DHT22;52586;-43.152;172.732;2023-05-07T06:03:04;20.30;60.70
65826;DHT22;52586;-43.152;172.732;2023-05-07T06:05:34;20.30;60.70
65826;DHT22;52586;-43.152;172.732;2023-05-07T06:08:05;20.30;60.70
65826;DHT22;52586;-43.152;172.732;2023-05-07T06:10:39;20.30;60.70
65826;DHT22;52586;-43.152;172.732;2023-05-07T06:13:09;20.30;60.70
65826;DHT22;52586;-43.152;172.732;2023-05-07T06:15:40;20.30;60.70
65826;DHT22;52586;-43.152;172.732;2023-05-07T06:18:11;20.20;60.60
65826;DHT22;52586;-43.152;172.732;2023-05-07T06:20:41;20.30;60.70
65826;DHT22;52586;-43.152;172.732;2023-05-07T06:23:12;20.30;60.70
65826;DHT22;52586;-43.152;172.732;2023-05-07T06:25:48;20.20;60.60
65826;DHT22;52586;-43.152;172.732;2023-05-07T06:28:19;20.20;60.70
65826;DHT22;52586;-43.152;172.732;2023-05-07T06:30:50;20.20;60.70
65826;DHT22;52586;-43.152;172.732;2023-05-07T06:33:20;20.20;60.70
65826;DHT22;52586;-43.152;172.732;2023-05-07T06:35:51;20.20;60.70
65826;DHT22;52586;-43.152;172.732;2023-05-07T06:38:22;20.20;60.60
65826;DHT22;52586;-43.152;172.732;2023-05-07T06:40:54;20.10;60.60
65826;DHT22;52586;-43.152;172.732;2023-05-07T06:43:25;20.10;60.80
65826;DHT22;52586;-43.152;172.732;2023-05-07T06:45:55;20.10;60.80
65826;DHT22;52586;-43.152;172.732;2023-05-07T06:48:26;20.10;60.80
65826;DHT22;52586;-43.152;172.732;2023-05-07T06:50:57;20.10;60.90
65826;DHT22;52586;-43.152;172.732;2023-05-07T06:53:27;20.00;60.90
65826;DHT22;52586;-43.152;172.732;2023-05-07T06:56:00;20.00;61.00
65826;DHT22;52586;-43.152;172.732;2023-05-07T06:58:31;19.90;61.00
65826;DHT22;52586;-43.152;172.732;2023-05-07T07:01:01;19.90;61.00
65826;DHT22;52586;-43.152;172.732;2023-05-07T07:03:32;19.90;61.10
65826;DHT22;52586;-43.152;172.732;2023-05-07T07:06:03;19.80;61.10
65826;DHT22;52586;-43.152;172.732;2023-05-07T07:08:33;19.80;61.20
65826;DHT22;52586;-43.152;172.732;2023-05-07T07:11:08;19.80;61.20
65826;DHT22;52586;-43.152;172.732;2023-05-07T07:13:39;19.80;61.30
65826;DHT22;52586;-43.152;172.732;2023-05-07T07:16:10;19.70;61.30
65826;DHT22;52586;-43.152;172.732;2023-05-07T07:18:41;19.70;61.30
65826;DHT22;52586;-43.152;172.732;2023-05-07T07:21:11;19.70;61.30
65826;DHT22;52586;-43.152;172.732;2023-05-07T07:23:42;19.70;61.50
65826;DHT22;52586;-43.152;172.732;2023-05-07T07:26:14;19.60;61.40
65826;DHT22;52586;-43.152;172.732;2023-05-07T07:28:45;19.60;61.50
65826;DHT22;52586;-43.152;172.732;2023-05-07T07:31:16;19.50;61.50
65826;DHT22;52586;-43.152;172.732;2023-05-07T07:33:47;19.50;61.60
65826;DHT22;52586;-43.152;172.732;2023-05-07T07:36:17;19.50;61.80
65826;DHT22;52586;-43.152;172.732;2023-05-07T07:38:48;19.50;61.80
65826;DHT22;52586;-43.152;172.732;2023-05-07T07:41:21;19.40;61.70
65826;DHT22;52586;-43.152;172.732;2023-05-07T07:43:51;19.40;61.80
65826;DHT22;52586;-43.152;172.732;2023-05-07T07:46:22;19.30;61.80
65826;DHT22;52586;-43.152;172.732;2023-05-07T07:48:54;19.40;61.90
65826;DHT22;52586;-43.152;172.732;2023-05-07T07:51:26;19.30;61.80
65826;DHT22;52586;-43.152;172.732;2023-05-07T07:53:57;19.30;61.80
65826;DHT22;52586;-43.152;172.732;2023-05-07T07:56:31;19.30;61.80
65826;DHT22;52586;-43.152;172.732;2023-05-07T07:59:03;19.20;62.00
65826;DHT22;52586;-43.152;172.732;2023-05-07T08:01:33;19.20;62.00
65826;DHT22;52586;-43.152;172.732;2023-05-07T08:04:04;19.20;62.10
65826;DHT22;52586;-43.152;172.732;2023-05-07T08:06:35;19.20;62.10
65826;DHT22;52586;-43.152;172.732;2023-05-07T08:09:05;19.10;62.20
65826;DHT22;52586;-43.152;172.732;2023-05-07T08:11:38;19.10;62.30
65826;DHT22;52586;-43.152;172.732;2023-05-07T08:14:09;19.10;62.40
65826;DHT22;52586;-43.152;172.732;2023-05-07T08:16:40;19.00;62.20
65826;DHT22;52586;-43.152;172.732;2023-05-07T08:19:10;19.10;62.40
65826;DHT22;52586;-43.152;172.732;2023-05-07T08:21:41;19.10;62.30
65826;DHT22;52586;-43.152;172.732;2023-05-07T08:24:11;19.10;62.30
65826;DHT22;52586;-43.152;172.732;2023-05-07T08:26:44;19.10;62.20
65826;DHT22;52586;-43.152;172.732;2023-05-07T08:29:15;19.20;62.20
65826;DHT22;52586;-43.152;172.732;2023-05-07T08:31:45;19.20;62.20
65826;DHT22;52586;-43.152;172.732;2023-05-07T08:34:16;19.20;62.10
65826;DHT22;52586;-43.152;172.732;2023-05-07T08:36:47;19.20;62.00
65826;DHT22;52586;-43.152;172.732;2023-05-07T08:39:17;19.20;62.00
65826;DHT22;52586;-43.152;172.732;2023-05-07T08:41:53;19.20;61.90
65826;DHT22;52586;-43.152;172.732;2023-05-07T08:44:26;19.30;61.90
65826;DHT22;52586;-43.152;172.732;2023-05-07T08:47:01;19.30;61.90
65826;DHT22;52586;-43.152;172.732;2023-05-07T08:49:32;19.30;61.80
65826;DHT22;52586;-43.152;172.732;2023-05-07T08:52:03;19.30;61.70
65826;DHT22;52586;-43.152;172.732;2023-05-07T08:54:34;19.30;61.60
65826;DHT22;52586;-43.152;172.732;2023-05-07T08:57:08;19.30;61.60
65826;DHT22;52586;-43.152;172.732;2023-05-07T08:59:39;19.30;61.50
65826;DHT22;52586;-43.152;172.732;2023-05-07T09:02:10;19.40;61.50
65826;DHT22;52586;-43.152;172.732;2023-05-07T09:04:41;19.40;61.50
65826;DHT22;52586;-43.152;172.732;2023-05-07T09:07:12;19.40;61.40
65826;DHT22;52586;-43.152;172.732;2023-05-07T09:09:44;19.40;61.40
65826;DHT22;52586;-43.152;172.732;2023-05-07T09:12:17;19.40;61.40
65826;DHT22;52586;-43.152;172.732;2023-05-07T09:14:47;19.40;61.40
65826;DHT22;52586;-43.152;172.732;2023-05-07T09:17:18;19.40;61.20
65826;DHT22;52586;-43.152;172.732;2023-05-07T09:19:49;19.40;61.30
65826;DHT22;52586;-43.152;172.732;2023-05-07T09:22:29;19.40;61.20
65826;DHT22;52586;-43.152;172.732;2023-05-07T09:25:01;19.40;62.00
65826;DHT22;52586;-43.152;172.732;2023-05-07T09:27:34;19.50;62.00
65826;DHT22;52586;-43.152;172.732;2023-05-07T09:30:05;19.50;61.80
65826;DHT22;52586;-43.152;172.732;2023-05-07T09:32:37;19.50;61.70
65826;DHT22;52586;-43.152;172.732;2023-05-07T09:35:15;19.50;61.60
65826;DHT22;52586;-43.152;172.732;2023-05-07T09:37:46;19.50;61.50
65826;DHT22;52586;-43.152;172.732;2023-05-07T09:40:27;19.50;61.40
65826;DHT22;52586;-43.152;172.732;2023-05-07T09:43:09;19.50;61.30
65826;DHT22;52586;-43.152;172.732;2023-05-07T09:45:42;19.60;61.30
65826;DHT22;52586;-43.152;172.732;2023-05-07T09:48:13;19.50;61.30
65826;DHT22;52586;-43.152;172.732;2023-05-07T09:50:49;19.60;61.30
65826;DHT22;52586;-43.152;172.732;2023-05-07T09:53:22;19.60;61.20
65826;DHT22;52586;-43.152;172.732;2023-05-07T09:55:58;19.60;61.30
65826;DHT22;52586;-43.152;172.732;2023-05-07T09:58:34;19.60;61.20
65826;DHT22;52586;-43.152;172.732;2023-05-07T10:01:07;19.60;62.00
65826;DHT22;52586;-43.152;172.732;2023-05-07T10:03:40;19.60;61.20
65826;DHT22;52586;-43.152;172.732;2023-05-07T10:06:13;19.50;61.00
65826;DHT22;52586;-43.152;172.732;2023-05-07T10:08:45;19.50;61.00
65826;DHT22;52586;-43.152;172.732;2023-05-07T10:11:16;19.60;61.00
65826;DHT22;52586;-43.152;172.732;2023-05-07T10:13:49;19.50;61.00
65826;DHT22;52586;-43.152;172.732;2023-05-07T10:16:20;19.50;61.00
65826;DHT22;52586;-43.152;172.732;2023-05-07T10:18:52;19.50;60.90
65826;DHT22;52586;-43.152;172.732;2023-05-07T10:21:24;19.50;60.90
65826;DHT22;52586;-43.152;172.732;2023-05-07T10:24:00;19.50;60.90
65826;DHT22;52586;-43.152;172.732;2023-05-07T10:26:34;19.50;60.80
65826;DHT22;52586;-43.152;172.732;2023-05-07T10:29:18;19.50;60.80
65826;DHT22;52586;-43.152;172.732;2023-05-07T10:31:58;19.50;60.70
65826;DHT22;52586;-43.152;172.732;2023-05-07T10:34:34;19.50;60.80
65826;DHT22;52586;-43.152;172.732;2023-05-07T10:37:06;19.50;60.70
65826;DHT22;52586;-43.152;172.732;2023-05-07T10:39:37;19.50;60.70
65826;DHT22;52586;-43.152;172.732;2023-05-07T10:42:11;19.50;60.70
65826;DHT22;52586;-43.152;172.732;2023-05-07T10:44:44;19.50;60.70
65826;DHT22;52586;-43.152;172.732;2023-05-07T10:47:18;19.50;60.70
65826;DHT22;52586;-43.152;172.732;2023-05-07T10:50:21;19.50;60.70
65826;DHT22;52586;-43.152;172.732;2023-05-07T10:53:25;19.40;60.60
65826;DHT22;52586;-43.152;172.732;2023-05-07T10:56:28;19.40;60.60
65826;DHT22;52586;-43.152;172.732;2023-05-07T10:59:34;19.40;60.60
65826;DHT22;52586;-43.152;172.732;2023-05-07T11:02:11;19.40;60.60
65826;DHT22;52586;-43.152;172.732;2023-05-07T11:04:42;19.40;60.50
65826;DHT22;52586;-43.152;172.732;2023-05-07T11:07:33;19.40;60.60
65826;DHT22;52586;-43.152;172.732;2023-05-07T11:10:07;19.40;60.60
65826;DHT22;52586;-43.152;172.732;2023-05-07T11:12:56;19.40;60.60
65826;DHT22;52586;-43.152;172.732;2023-05-07T11:15:40;19.40;60.60
65826;DHT22;52586;-43.152;172.732;2023-05-07T11:18:14;19.40;60.50
65826;DHT22;52586;-43.152;172.732;2023-05-07T11:20:47;19.40;60.50
65826;DHT22;52586;-43.152;172.732;2023-05-07T11:23:57;19.40;60.40
65826;DHT22;52586;-43.152;172.732;2023-05-07T11:26:29;19.40;60.40
65826;DHT22;52586;-43.152;172.732;2023-05-07T11:29:01;19.40;60.40
65826;DHT22;52586;-43.152;172.732;2023-05-07T11:31:32;19.40;60.50
65826;DHT22;52586;-43.152;172.732;2023-05-07T11:34:05;19.30;60.50
65826;DHT22;52586;-43.152;172.732;2023-05-07T11:36:36;19.30;60.50
65826;DHT22;52586;-43.152;172.732;2023-05-07T11:39:28;19.30;60.50
65826;DHT22;52586;-43.152;172.732;2023-05-07T11:42:01;19.30;60.50
65826;DHT22;52586;-43.152;172.732;2023-05-07T11:44:43;19.30;60.50
65826;DHT22;52586;-43.152;172.732;2023-05-07T11:47:19;19.30;60.50
65826;DHT22;52586;-43.152;172.732;2023-05-07T11:49:53;19.30;60.40
65826;DHT22;52586;-43.152;172.732;2023-05-07T11:52:24;19.30;60.40
65826;DHT22;52586;-43.152;172.732;2023-05-07T11:54:56;19.30;60.40
65826;DHT22;52586;-43.152;172.732;2023-05-07T11:57:28;19.30;60.30
65826;DHT22;52586;-43.152;172.732;2023-05-07T11:59:59;19.30;60.30
65826;DHT22;52586;-43.152;172.732;2023-05-07T12:02:30;19.30;60.30
65826;DHT22;52586;-43.152;172.732;2023-05-07T12:05:02;19.30;60.30
65826;DHT22;52586;-43.152;172.732;2023-05-07T12:07:34;19.20;60.10
65826;DHT22;52586;-43.152;172.732;2023-05-07T12:10:08;19.20;60.20
65826;DHT22;52586;-43.152;172.732;2023-05-07T12:12:45;19.20;60.20
65826;DHT22;52586;-43.152;172.732;2023-05-07T12:15:17;19.20;60.30
65826;DHT22;52586;-43.152;172.732;2023-05-07T12:17:52;19.20;60.30
65826;DHT22;52586;-43.152;172.732;2023-05-07T12:20:25;19.20;60.30
65826;DHT22;52586;-43.152;172.732;2023-05-07T12:22:56;19.20;60.40
65826;DHT22;52586;-43.152;172.732;2023-05-07T12:25:27;19.20;60.30
65826;DHT22;52586;-43.152;172.732;2023-05-07T12:28:02;19.20;60.30
65826;DHT22;52586;-43.152;172.732;2023-05-07T12:30:33;19.20;60.30
65826;DHT22;52586;-43.152;172.732;2023-05-07T12:33:07;19.20;60.30
65826;DHT22;52586;-43.152;172.732;2023-05-07T12:35:40;19.20;60.20
65826;DHT22;52586;-43.152;172.732;2023-05-07T12:38:11;19.20;60.20
65826;DHT22;52586;-43.152;172.732;2023-05-07T12:40:43;19.20;60.20
65826;DHT22;52586;-43.152;172.732;2023-05-07T12:43:18;19.20;60.20
65826;DHT22;52586;-43.152;172.732;2023-05-07T12:45:51;19.20;60.20
65826;DHT22;52586;-43.152;172.732;2023-05-07T12:48:22;19.20;60.20
65826;DHT22;52586;-43.152;172.732;2023-05-07T12:50:57;19.10;60.20
65826;DHT22;52586;-43.152;172.732;2023-05-07T12:53:28;19.20;60.30
65826;DHT22;52586;-43.152;172.732;2023-05-07T12:56:00;19.20;60.30
65826;DHT22;52586;-43.152;172.732;2023-05-07T12:58:32;19.20;60.30
65826;DHT22;52586;-43.152;172.732;2023-05-07T13:01:06;19.10;61.10
65826;DHT22;52586;-43.152;172.732;2023-05-07T13:03:37;19.20;60.40
65826;DHT22;52586;-43.152;172.732;2023-05-07T13:06:10;19.20;60.40
65826;DHT22;52586;-43.152;172.732;2023-05-07T13:08:42;19.10;61.10
65826;DHT22;52586;-43.152;172.732;2023-05-07T13:11:13;19.10;60.30
65826;DHT22;52586;-43.152;172.732;2023-05-07T13:13:43;19.10;60.30
65826;DHT22;52586;-43.152;172.732;2023-05-07T13:16:14;19.10;60.30
65826;DHT22;52586;-43.152;172.732;2023-05-07T13:18:44;19.10;60.30
65826;DHT22;52586;-43.152;172.732;2023-05-07T13:21:17;19.10;60.30
65826;DHT22;52586;-43.152;172.732;2023-05-07T13:23:47;19.10;60.30
65826;DHT22;52586;-43.152;172.732;2023-05-07T13:26:18;19.10;60.20
65826;DHT22;52586;-43.152;172.732;2023-05-07T13:28:49;19.10;60.30
65826;DHT22;52586;-43.152;172.732;2023-05-07T13:31:20;19.10;60.40
65826;DHT22;52586;-43.152;172.732;2023-05-07T13:33:51;19.10;60.40
65826;DHT22;52586;-43.152;172.732;2023-05-07T13:36:25;19.10;60.40
65826;DHT22;52586;-43.152;172.732;2023-05-07T13:38:56;19.10;60.40
65826;DHT22;52586;-43.152;172.732;2023-05-07T13:41:28;19.10;60.40
65826;DHT22;52586;-43.152;172.732;2023-05-07T13:43:58;19.10;61.20
65826;DHT22;52586;-43.152;172.732;2023-05-07T13:46:29;19.10;60.40
65826;DHT22;52586;-43.152;172.732;2023-05-07T13:49:00;19.10;60.40
65826;DHT22;52586;-43.152;172.732;2023-05-07T13:51:32;19.10;60.40
65826;DHT22;52586;-43.152;172.732;2023-05-07T13:54:03;19.10;60.40
65826;DHT22;52586;-43.152;172.732;2023-05-07T13:56:34;19.10;60.40
65826;DHT22;52586;-43.152;172.732;2023-05-07T13:59:04;19.10;60.40
65826;DHT22;52586;-43.152;172.732;2023-05-07T14:01:35;19.10;60.40
65826;DHT22;52586;-43.152;172.732;2023-05-07T14:04:05;19.10;60.40
65826;DHT22;52586;-43.152;172.732;2023-05-07T14:06:38;19.10;60.40
65826;DHT22;52586;-43.152;172.732;2023-05-07T14:09:09;19.10;60.40
65826;DHT22;52586;-43.152;172.732;2023-05-07T14:11:40;19.10;60.50
65826;DHT22;52586;-43.152;172.732;2023-05-07T14:14:11;19.10;60.50
65826;DHT22;52586;-43.152;172.732;2023-05-07T14:16:42;19.00;60.40
65826;DHT22;52586;-43.152;172.732;2023-05-07T14:19:12;19.00;60.40
65826;DHT22;52586;-43.152;172.732;2023-05-07T14:21:45;19.10;60.50
65826;DHT22;52586;-43.152;172.732;2023-05-07T14:24:16;19.00;60.40
65826;DHT22;52586;-43.152;172.732;2023-05-07T14:26:46;19.00;60.40
65826;DHT22;52586;-43.152;172.732;2023-05-07T14:29:18;19.10;60.50
65826;DHT22;52586;-43.152;172.732;2023-05-07T14:31:48;19.00;60.40
65826;DHT22;52586;-43.152;172.732;2023-05-07T14:34:19;19.00;60.40
65826;DHT22;52586;-43.152;172.732;2023-05-07T14:36:51;19.00;60.30
65826;DHT22;52586;-43.152;172.732;2023-05-07T14:39:23;19.00;60.30
65826;DHT22;52586;-43.152;172.732;2023-05-07T14:41:53;19.00;60.30
65826;DHT22;52586;-43.152;172.732;2023-05-07T14:44:24;19.00;60.30
65826;DHT22;52586;-43.152;172.732;2023-05-07T14:46:55;19.00;60.30
65826;DHT22;52586;-43.152;172.732;2023-05-07T14:49:27;19.00;60.30
65826;DHT22;52586;-43.152;172.732;2023-05-07T14:52:00;19.00;60.30
65826;DHT22;52586;-43.152;172.732;2023-05-07T14:54:33;19.00;60.30
65826;DHT22;52586;-43.152;172.732;2023-05-07T14:57:05;19.00;60.30
65826;DHT22;52586;-43.152;172.732;2023-05-07T14:59:35;19.00;60.30
65826;DHT22;52586;-43.152;172.732;2023-05-07T15:02:07;19.00;60.40
65826;DHT22;52586;-43.152;172.732;2023-05-07T15:04:39;19.00;60.30
65826;DHT22;52586;-43.152;172.732;2023-05-07T15:07:15;19.00;60.30
65826;DHT22;52586;-43.152;172.732;2023-05-07T15:09:46;19.00;60.40
65826;DHT22;52586;-43.152;172.732;2023-05-07T15:12:16;19.00;60.30
65826;DHT22;52586;-43.152;172.732;2023-05-07T15:14:47;19.00;60.30
65826;DHT22;52586;-43.152;172.732;2023-05-07T15:17:18;19.00;60.30
65826;DHT22;52586;-43.152;172.732;2023-05-07T15:19:48;18.90;60.20
65826;DHT22;52586;-43.152;172.732;2023-05-07T15:22:21;19.00;60.30
65826;DHT22;52586;-43.152;172.732;2023-05-07T15:24:52;19.00;60.20
65826;DHT22;52586;-43.152;172.732;2023-05-07T15:27:22;19.00;60.20
65826;DHT22;52586;-43.152;172.732;2023-05-07T15:29:53;19.00;60.30
65826;DHT22;52586;-43.152;172.732;2023-05-07T15:32:24;19.00;60.30
65826;DHT22;52586;-43.152;172.732;2023-05-07T15:34:55;19.00;60.30
65826;DHT22;52586;-43.152;172.732;2023-05-07T15:37:27;19.00;60.30
65826;DHT22;52586;-43.152;172.732;2023-05-07T15:39:58;19.00;60.30
65826;DHT22;52586;-43.152;172.732;2023-05-07T15:42:30;19.00;60.30
65826;DHT22;52586;-43.152;172.732;2023-05-07T15:45:00;19.00;60.40
65826;DHT22;52586;-43.152;172.732;2023-05-07T15:47:33;19.00;60.30
65826;DHT22;52586;-43.152;172.732;2023-05-07T15:50:04;19.00;60.30
65826;DHT22;52586;-43.152;172.732;2023-05-07T15:52:39;19.00;60.30
65826;DHT22;52586;-43.152;172.732;2023-05-07T15:55:10;19.00;60.30
65826;DHT22;52586;-43.152;172.732;2023-05-07T15:57:41;18.90;60.30
65826;DHT22;52586;-43.152;172.732;2023-05-07T16:00:13;19.00;60.30
65826;DHT22;52586;-43.152;172.732;2023-05-07T16:02:44;19.00;60.30
65826;DHT22;52586;-43.152;172.732;2023-05-07T16:05:14;19.00;60.40
65826;DHT22;52586;-43.152;172.732;2023-05-07T16:07:47;19.00;60.30
65826;DHT22;52586;-43.152;172.732;2023-05-07T16:10:18;19.00;60.30
65826;DHT22;52586;-43.152;172.732;2023-05-07T16:12:48;18.90;60.30
65826;DHT22;52586;-43.152;172.732;2023-05-07T16:15:19;19.00;60.40
65826;DHT22;52586;-43.152;172.732;2023-05-07T16:17:49;18.90;60.30
65826;DHT22;52586;-43.152;172.732;2023-05-07T16:20:25;19.00;60.40